DW5174 Weather Reports


Display with metric or nautical units.
time (UTC)temp
F
wind
direction
speed
MPH
gust
MPH
rain 1hr
in
rain 24hr
in
rain mn
in
humidity
%
barometer
mb
20190121180205 40 277 9.0 19.0 0.07 0.15 0.15 93 1010.8
20190121175704 40 275 6.0 20.0 0.09 0.15 0.15 93 1010.8
20190121175206 40 285 14.0 28.0 0.08 0.14 0.14 92 1010.7
20190121174704 41 286 13.0 28.0 0.08 0.14 0.14 92 1010.6
20190121174204 42 262 14.0 28.0 0.09 0.13 0.13 92 1010.6
20190121173704 43 277 22.0 26.0 0.09 0.13 0.13 94 1010.4
20190121173206 44 271 15.0 26.0 0.08 0.11 0.11 97 1010.1
20190121172704 44 243 14.0 26.0 0.08 0.11 0.11 97 1010.0
20190121172205 44 203 14.0 22.0 0.07 0.10 0.10 98 1010.0
20190121171704 44 222 9.0 21.0 0.07 0.10 0.10 98 1010.1
20190121171205 44 237 9.0 21.0 0.07 0.09 0.09 97 1010.1
20190121170704 44 240 10.0 21.0 0.07 0.09 0.09 97 1010.2
20190121170205 44 234 12.0 22.0 0.05 0.07 0.07 96 1010.2
20190121165705 44 217 11.0 22.0 0.05 0.07 0.07 96 1010.2
20190121165205 44 163 13.0 22.0 0.04 0.06 0.06 96 1010.1
20190121164706 44 225 15.0 22.0 0.04 0.05 0.05 95 1010.3
20190121164205 44 227 10.0 19.0 0.04 0.05 0.05 96 1010.3
20190121163704 44 217 8.0 17.0 0.03 0.04 0.04 96 1010.3
20190121163205 43 161 4.0 17.0 0.03 0.04 0.04 96 1010.5
20190121162706 43 177 3.0 17.0 0.03 0.04 0.04 96 1010.6
20190121162205 43 172 6.0 12.0 0.03 0.03 0.03 96 1010.9
20190121161704 43 174 3.0 13.0 0.03 0.03 0.03 95 1011.0
20190121161204 43 209 4.0 13.0 0.03 0.03 0.03 94 1011.1
20190121160705 44 212 6.0 13.0 0.02 0.02 0.02 94 1011.2
20190121160206 44 140 0.0 13.0 0.02 0.02 0.02 94 1011.4
20190121155705 44 140 5.0 13.0 0.02 0.02 0.02 93 1011.5
20190121155206 44 174 5.0 16.0 0.01 0.01 0.01 92 1011.6
20190121154705 44 130 3.0 17.0 0.01 0.01 0.01 92 1011.8
20190121154205 44 150 6.0 17.0 0.01 0.01 0.01 92 1012.0
20190121153705 44 142 5.0 21.0 0.01 0.01 0.01 92 1012.3
20190121153204 44 181 8.0 21.0 0.01 0.01 0.01 92 1012.4
20190121152705 44 217 7.0 21.0 0.00 0.00 0.00 92 1012.8
20190121152205 44 130 9.0 19.0 0.00 0.00 0.00 91 1012.9
20190121151705 44 185 6.0 19.0 0.00 0.00 0.00 90 1013.1
20190121151206 44 130 5.0 17.0 0.00 0.00 0.00 90 1013.4
20190121150707 44 139 4.0 17.0 0.00 0.00 0.00 89 1013.6
20190121150205 44 127 8.0 17.0 0.00 0.00 0.00 88 1013.8
20190121145704 44 194 7.0 17.0 0.00 0.00 0.00 87 1014.1
20190121145205 44 157 4.0 17.0 0.00 0.00 0.00 88 1014.2
20190121144704 44 225 0.0 19.0 0.00 0.00 0.00 88 1014.4
20190121144206 44 177 8.0 19.0 0.00 0.00 0.00 88 1014.5
20190121143704 44 157 8.0 18.0 0.00 0.00 0.00 88 1014.7
20190121143205 44 180 10.0 17.0 0.00 0.00 0.00 88 1014.9
20190121142705 44 158 6.0 18.0 0.00 0.00 0.00 88 1015.1
20190121142205 44 198 6.0 18.0 0.00 0.00 0.00 89 1015.2
20190121141705 43 177 9.0 18.0 0.00 0.00 0.00 90 1015.3
20190121141205 43 229 6.0 12.0 0.00 0.00 0.00 90 1015.6
20190121140705 43 167 0.0 11.0 0.00 0.00 0.00 91 1015.9
20190121140205 43 188 5.0 11.0 0.00 0.00 0.00 91 1016.2
20190121135705 42 232 4.0 13.0 0.00 0.00 0.00 92 1016.4
20190121135206 42 171 5.0 13.0 0.00 0.00 0.00 92 1016.5
20190121134706 42 195 4.0 15.0 0.00 0.00 0.00 92 1016.6
20190121134204 42 188 6.0 15.0 0.00 0.01 0.00 92 1016.7
20190121133704 42 230 6.0 15.0 0.00 0.01 0.00 93 1016.8
20190121133206 42 205 4.0 16.0 0.00 0.01 0.00 94 1016.9
20190121132708 42 175 8.0 16.0 0.00 0.01 0.00 98 1017.1
20190121132206 41 171 2.0 9.0 0.00 0.01 0.00 100 1017.2
20190121131705 40 213 0.0 9.0 0.00 0.01 0.00 100 1017.3
20190121131208 40 168 2.0 5.0 0.00 0.01 0.00 100 1017.5
20190121130705 39 310 0.0 0.0 0.00 0.01 0.00 100 1017.7
20190121130205 38 310 0.0 0.0 0.00 0.01 0.00 100 1017.9
20190121125705 37 310 0.0 0.0 0.00 0.01 0.00 100 1018.3
20190121125205 37 310 0.0 0.0 0.00 0.01 0.00 100 1018.5
20190121124705 37 310 0.0 0.0 0.00 0.01 0.00 100 1018.7
20190121124206 36 310 0.0 0.0 0.00 0.01 0.00 100 1018.9
20190121123705 36 310 0.0 0.0 0.00 0.01 0.00 100 1019.1
20190121123206 36 310 0.0 0.0 0.00 0.01 0.00 100 1019.3
20190121122705 35 310 0.0 0.0 0.00 0.01 0.00 100 1019.5
20190121122204 35 310 0.0 0.0 0.00 0.01 0.00 100 1019.5
20190121121705 35 310 0.0 0.0 0.00 0.01 0.00 100 1019.6
20190121121205 35 310 0.0 0.0 0.00 0.01 0.00 100 1019.9
20190121120706 35 310 0.0 0.0 0.00 0.01 0.00 100 1020.0
20190121120205 34 310 0.0 0.0 0.00 0.01 0.00 100 1020.1
20190121115704 34 310 0.0 0.0 0.00 0.01 0.00 100 1020.2
20190121115205 34 310 0.0 0.0 0.00 0.01 0.00 100 1020.3
20190121114705 34 310 0.0 0.0 0.00 0.01 0.00 100 1020.4
20190121114206 33 310 0.0 0.0 0.00 0.01 0.00 100 1020.6
20190121113708 33 310 0.0 0.0 0.00 0.01 0.00 100 1020.8
20190121113205 33 310 0.0 0.0 0.00 0.01 0.00 100 1020.9
20190121112704 33 310 0.0 0.0 0.00 0.01 0.00 100 1021.1
20190121112206 33 310 0.0 0.0 0.00 0.01 0.00 100 1021.4
20190121111705 33 310 0.0 0.0 0.00 0.01 0.00 100 1021.4
20190121111204 33 310 0.0 0.0 0.00 0.01 0.00 100 1021.5
20190121110705 32 310 0.0 0.0 0.00 0.01 0.00 100 1021.7
20190121110205 32 310 0.0 0.0 0.00 0.01 0.00 100 1021.9
20190121105705 32 310 0.0 0.0 0.00 0.01 0.00 100 1021.9
20190121105206 32 310 0.0 0.0 0.00 0.01 0.00 100 1022.3
20190121104705 31 310 0.0 0.0 0.00 0.01 0.00 100 1022.3
20190121104205 31 310 0.0 0.0 0.00 0.01 0.00 100 1022.4
20190121103705 31 310 0.0 0.0 0.00 0.01 0.00 100 1022.3
20190121103205 31 310 0.0 0.0 0.00 0.01 0.00 100 1022.4
20190121102705 31 310 0.0 0.0 0.00 0.01 0.00 100 1022.3
20190121102206 31 310 0.0 0.0 0.00 0.01 0.00 100 1022.4
20190121101704 30 310 0.0 0.0 0.00 0.01 0.00 100 1022.5
20190121101205 30 310 0.0 0.0 0.00 0.01 0.00 100 1022.6
20190121100704 30 310 0.0 0.0 0.00 0.01 0.00 100 1022.7
20190121100204 30 310 0.0 0.0 0.00 0.01 0.00 100 1022.7
20190121095705 30 310 0.0 0.0 0.00 0.01 0.00 100 1022.8
20190121095205 30 310 0.0 0.0 0.00 0.01 0.00 100 1023.0
20190121094706 30 310 0.0 0.0 0.00 0.01 0.00 100 1023.2
20190121094205 30 310 0.0 0.0 0.00 0.01 0.00 100 1023.3
20190121093705 30 310 0.0 0.0 0.00 0.01 0.00 100 1023.2
20190121093205 30 310 0.0 0.0 0.00 0.01 0.00 100 1023.1
20190121092705 30 310 0.0 0.0 0.00 0.01 0.00 100 1023.2
20190121092205 30 310 0.0 0.0 0.00 0.01 0.00 100 1023.5
20190121091704 30 310 0.0 0.0 0.00 0.01 0.00 100 1023.5
20190121091205 30 310 0.0 0.0 0.00 0.01 0.00 100 1023.5
20190121090704 29 310 0.0 0.0 0.00 0.01 0.00 100 1023.4
20190121090205 29 310 0.0 0.0 0.00 0.01 0.00 100 1023.8
20190121085705 29 310 0.0 0.0 0.00 0.01 0.00 100 1024.0
20190121085205 29 310 0.0 0.0 0.00 0.01 0.00 100 1024.0
20190121084704 29 310 0.0 0.0 0.00 0.01 0.00 100 1024.0
20190121084205 29 310 0.0 0.0 0.00 0.01 0.00 100 1024.3
20190121083705 29 310 0.0 0.0 0.00 0.01 0.00 100 1024.4
20190121083204 28 310 0.0 0.0 0.00 0.01 0.00 100 1024.7
20190121082706 28 310 0.0 0.0 0.00 0.01 0.00 100 1024.8
20190121082206 28 310 0.0 0.0 0.00 0.01 0.00 100 1024.7
20190121081705 28 310 0.0 0.0 0.00 0.01 0.00 100 1024.6
20190121081205 28 310 0.0 0.0 0.00 0.01 0.00 100 1024.8
20190121080704 28 310 0.0 0.0 0.00 0.01 0.00 100 1024.9
20190121080205 28 310 0.0 0.0 0.00 0.01 0.00 100 1025.0
20190121075705 28 310 0.0 0.0 0.00 0.01 0.00 100 1025.2
20190121075204 28 310 0.0 0.0 0.00 0.01 0.00 100 1025.2
20190121074705 28 310 0.0 0.0 0.00 0.01 0.00 100 1025.4
20190121074204 28 310 0.0 0.0 0.00 0.01 0.00 100 1025.4
20190121073707 28 310 0.0 0.0 0.00 0.01 0.00 100 1025.5
20190121073204 29 310 0.0 0.0 0.00 0.01 0.00 100 1025.5
20190121072705 29 310 0.0 0.0 0.00 0.01 0.00 100 1025.6
20190121072205 29 310 0.0 0.0 0.00 0.01 0.00 100 1025.6
20190121071705 29 310 0.0 0.0 0.00 0.01 0.00 100 1025.6
20190121071205 29 310 0.0 0.0 0.00 0.01 0.00 100 1025.7
20190121070705 29 310 0.0 0.0 0.00 0.01 0.00 100 1025.7
20190121070207 29 310 0.0 0.0 0.00 0.01 0.00 100 1025.8
20190121065704 29 310 0.0 0.0 0.00 0.01 0.00 100 1025.8
20190121065205 29 310 0.0 0.0 0.00 0.01 0.00 100 1025.9
20190121064705 29 310 0.0 0.0 0.00 0.01 0.00 100 1025.9
20190121064204 29 310 0.0 0.0 0.00 0.01 0.00 100 1025.9
20190121063708 29 310 0.0 0.0 0.00 0.01 0.00 100 1026.0
20190121063205 29 310 0.0 0.0 0.00 0.01 0.00 100 1026.2
20190121062705 29 310 0.0 0.0 0.00 0.01 0.00 100 1026.1
20190121062208 29 310 0.0 0.0 0.00 0.01 0.00 100 1026.1
20190121061705 29 310 0.0 0.0 0.00 0.01 0.00 100 1026.1
20190121061206 29 310 0.0 0.0 0.00 0.01 0.00 100 1026.1
20190121060705 29 310 0.0 0.0 0.00 0.01 0.00 100 1026.1
20190121060214 29 310 0.0 0.0 0.00 0.01 0.00 100 1026.2
20190121055705 29 310 0.0 0.0 0.00 0.01 0.00 100 1026.3
20190121055205 29 310 0.0 0.0 0.00 0.01 0.00 100 1026.2
20190121054704 29 310 0.0 0.0 0.00 0.01 0.00 100 1026.2
20190121054209 29 310 0.0 0.0 0.00 0.01 0.00 100 1026.2
20190121053704 29 310 0.0 0.0 0.00 0.01 0.00 100 1026.4
20190121053205 29 310 0.0 0.0 0.00 0.01 0.00 100 1026.4
20190121052705 29 310 0.0 0.0 0.00 0.01 0.00 100 1026.4
20190121052205 29 310 0.0 0.0 0.00 0.01 0.00 100 1026.7
20190121051705 29 310 0.0 0.0 0.00 0.01 0.00 100 1026.8
20190121051205 29 310 0.0 0.0 0.00 0.01 0.00 100 1026.9
20190121050704 29 310 0.0 0.0 0.00 0.01 0.00 100 1026.8
20190121050206 29 310 0.0 0.0 0.00 0.01 0.00 100 1026.7
20190121045705 29 310 0.0 0.0 0.00 0.01 0.00 100 1026.9
20190121045205 29 310 0.0 0.0 0.00 0.01 0.00 100 1027.0
20190121044708 29 310 0.0 0.0 0.00 0.01 0.00 100 1026.9
20190121044204 29 310 0.0 0.0 0.00 0.01 0.00 100 1027.0
20190121043705 29 310 0.0 0.0 0.00 0.01 0.00 100 1027.2
20190121043204 29 310 0.0 0.0 0.00 0.01 0.00 100 1027.3
20190121042705 29 310 0.0 0.0 0.00 0.01 0.00 100 1027.4
20190121042207 28 310 0.0 0.0 0.00 0.01 0.00 100 1027.3
20190121041704 28 310 0.0 0.0 0.00 0.01 0.00 100 1027.5
20190121041205 28 310 0.0 0.0 0.00 0.01 0.00 100 1027.5
20190121040704 28 310 0.0 0.0 0.00 0.01 0.00 100 1027.6
20190121040205 29 310 0.0 0.0 0.00 0.01 0.00 100 1027.7
20190121035706 29 310 0.0 0.0 0.00 0.01 0.00 100 1027.7
20190121035205 29 310 0.0 0.0 0.00 0.01 0.00 100 1027.8
20190121034706 29 310 0.0 0.0 0.00 0.01 0.00 100 1027.7
20190121034205 29 310 0.0 0.0 0.00 0.01 0.00 100 1027.7
20190121033704 29 310 0.0 0.0 0.00 0.01 0.00 100 1027.8
20190121033205 29 310 0.0 0.0 0.00 0.01 0.00 100 1027.8
20190121032705 29 310 0.0 0.0 0.00 0.01 0.00 100 1028.0
20190121032205 29 310 0.0 0.0 0.00 0.01 0.00 100 1028.2
20190121031704 29 310 0.0 0.0 0.00 0.01 0.00 100 1028.3
20190121031205 29 310 0.0 0.0 0.00 0.01 0.00 100 1028.1
20190121030705 29 310 0.0 0.0 0.00 0.01 0.00 100 1028.2
20190121030205 29 310 0.0 0.0 0.00 0.01 0.00 100 1028.3
20190121025704 29 310 0.0 0.0 0.00 0.01 0.00 100 1028.4
20190121025208 29 310 0.0 0.0 0.00 0.01 0.00 100 1028.4
20190121024705 30 310 0.0 0.0 0.00 0.01 0.00 100 1028.3
20190121024205 30 310 0.0 0.0 0.00 0.01 0.00 100 1028.3
20190121023705 30 310 0.0 0.0 0.00 0.01 0.00 100 1028.2
20190121023204 30 310 0.0 0.0 0.00 0.01 0.00 100 1028.2
20190121022704 30 310 0.0 0.0 0.00 0.01 0.00 100 1028.3
20190121022205 30 310 0.0 0.0 0.00 0.01 0.00 100 1028.4
20190121021704 30 310 0.0 0.0 0.00 0.01 0.00 100 1028.6
20190121021204 30 310 0.0 0.0 0.00 0.01 0.00 100 1028.5
20190121020704 30 310 0.0 0.0 0.00 0.01 0.00 100 1028.4
20190121020204 30 310 0.0 0.0 0.00 0.01 0.00 100 1028.5
20190121015705 30 310 0.0 0.0 0.00 0.01 0.00 100 1028.5
20190121015208 30 310 0.0 0.0 0.00 0.01 0.00 100 1028.6
20190121014706 30 310 0.0 0.0 0.00 0.01 0.00 100 1028.6
20190121014205 30 310 0.0 0.0 0.00 0.01 0.00 100 1028.6
20190121013704 30 310 0.0 0.0 0.00 0.01 0.00 100 1028.6
20190121013204 30 310 0.0 0.0 0.00 0.01 0.00 100 1028.5
20190121012706 30 310 0.0 0.0 0.00 0.01 0.00 100 1028.5
20190121012206 31 310 0.0 0.0 0.00 0.01 0.00 100 1028.5
20190121011704 31 310 0.0 0.0 0.00 0.01 0.00 100 1028.5
20190121011205 31 310 0.0 0.0 0.00 0.01 0.00 100 1028.6
20190121010705 31 310 0.0 0.0 0.00 0.01 0.00 100 1028.8
20190121010205 31 310 0.0 0.0 0.00 0.01 0.00 100 1028.9
20190121005705 31 310 0.0 0.0 0.00 0.01 0.00 100 1028.9
20190121005205 31 310 0.0 0.0 0.00 0.01 0.00 100 1028.8
20190121004705 31 310 0.0 0.0 0.00 0.01 0.00 100 1028.8
20190121004205 31 310 0.0 0.0 0.00 0.01 0.00 100 1028.8
20190121003705 31 310 0.0 0.0 0.00 0.01 0.00 100 1029.0
20190121003205 31 310 0.0 0.0 0.00 0.01 0.00 100 1029.1
20190121002705 31 310 0.0 0.0 0.00 0.01 0.00 100 1029.2
20190121002206 31 310 0.0 0.0 0.00 0.01 0.00 100 1029.3
20190121001705 31 310 0.0 0.0 0.00 0.01 0.00 100 1029.2
20190121001205 31 310 0.0 0.0 0.00 0.01 0.00 100 1029.2
20190121000708 31 310 0.0 0.0 0.00 0.01 0.00 100 1029.2
20190121000208 31 310 0.0 0.0 0.00 0.01 0.01 100 1029.2
20190120235705 31 310 0.0 0.0 0.00 0.01 0.01 100 1029.1
20190120235204 32 310 0.0 0.0 0.00 0.01 0.01 100 1029.3
20190120234706 32 310 0.0 0.0 0.00 0.01 0.01 100 1029.3
20190120234205 32 310 0.0 0.0 0.00 0.01 0.01 100 1029.2
20190120233705 32 310 0.0 0.0 0.00 0.01 0.01 100 1029.2
20190120233205 32 310 0.0 0.0 0.00 0.01 0.01 100 1029.3
20190120232705 32 310 0.0 0.0 0.00 0.01 0.01 100 1029.3
20190120232208 32 310 0.0 0.0 0.00 0.01 0.01 100 1029.3
20190120231704 32 310 0.0 0.0 0.00 0.01 0.01 100 1029.2
20190120231205 32 310 0.0 0.0 0.00 0.01 0.01 100 1029.2
20190120230704 32 310 0.0 0.0 0.00 0.01 0.01 100 1029.1
20190120230207 33 310 0.0 0.0 0.00 0.01 0.01 100 1029.0
20190120225705 32 310 0.0 0.0 0.00 0.01 0.01 100 1029.0
20190120225206 32 310 0.0 0.0 0.00 0.01 0.01 100 1028.9
20190120224705 33 310 0.0 0.0 0.00 0.01 0.01 100 1028.9
20190120224205 33 310 0.0 0.0 0.00 0.01 0.01 100 1028.9
20190120223706 33 310 0.0 0.0 0.00 0.01 0.01 100 1028.9
20190120223204 33 310 0.0 0.0 0.00 0.01 0.01 100 1028.9
20190120222706 33 310 0.0 0.0 0.00 0.01 0.01 100 1028.9
20190120222205 33 310 0.0 0.0 0.00 0.01 0.01 100 1028.9
20190120221704 33 310 0.0 0.0 0.00 0.01 0.01 100 1028.8
20190120221205 33 310 0.0 0.0 0.00 0.01 0.01 99 1028.9
20190120220706 33 310 0.0 0.0 0.00 0.01 0.01 99 1028.9
20190120220206 33 310 0.0 0.0 0.00 0.01 0.01 99 1028.8
20190120215704 33 310 0.0 0.0 0.00 0.01 0.01 99 1028.8
20190120215205 33 310 0.0 0.0 0.00 0.01 0.01 98 1028.8
20190120214704 32 310 0.0 0.0 0.00 0.01 0.01 98 1028.8
20190120214205 33 310 0.0 0.0 0.00 0.01 0.01 98 1028.7
20190120213705 33 310 0.0 0.0 0.00 0.01 0.01 98 1028.7
20190120213205 33 310 0.0 0.0 0.00 0.01 0.01 98 1028.7
20190120212705 33 310 0.0 0.0 0.00 0.01 0.01 98 1028.7
20190120212206 33 310 0.0 0.0 0.00 0.01 0.01 98 1028.6
20190120211705 33 310 0.0 0.0 0.00 0.01 0.01 98 1028.6
20190120211205 33 310 0.0 0.0 0.00 0.01 0.01 98 1028.6
20190120210705 33 310 0.0 0.0 0.00 0.01 0.01 98 1028.6
20190120210205 33 310 0.0 0.0 0.00 0.01 0.01 98 1028.6
20190120205705 33 310 0.0 0.0 0.00 0.01 0.01 98 1028.6
20190120205207 33 310 0.0 0.0 0.00 0.01 0.01 98 1028.5
20190120204704 33 310 0.0 0.0 0.00 0.01 0.01 97 1028.4
20190120204207 34 310 0.0 0.0 0.00 0.01 0.01 97 1028.4
20190120203705 34 310 0.0 0.0 0.00 0.01 0.01 96 1028.4
20190120203208 33 310 0.0 0.0 0.00 0.01 0.01 96 1028.4
20190120202705 34 310 0.0 0.0 0.00 0.01 0.01 96 1028.3
20190120202205 34 310 0.0 0.0 0.00 0.01 0.01 96 1028.3
20190120201705 34 310 0.0 0.0 0.00 0.01 0.01 96 1028.3
20190120201206 34 310 0.0 0.0 0.00 0.01 0.01 96 1028.3
20190120200705 34 310 0.0 0.0 0.00 0.01 0.01 95 1028.3
20190120200204 34 310 0.0 0.0 0.00 0.01 0.01 95 1028.3
20190120195705 34 310 0.0 0.0 0.00 0.01 0.01 94 1028.2
20190120195205 34 310 0.0 0.0 0.00 0.01 0.01 94 1028.1
20190120194704 35 310 0.0 0.0 0.00 0.01 0.01 95 1028.1
20190120194205 35 310 0.0 0.0 0.00 0.01 0.01 95 1028.0
20190120193705 35 310 0.0 0.0 0.00 0.01 0.01 95 1028.0
20190120193205 35 310 0.0 0.0 0.00 0.01 0.01 94 1027.9
20190120192706 35 310 0.0 0.0 0.00 0.01 0.01 93 1027.8
20190120192205 35 310 0.0 0.0 0.00 0.01 0.01 93 1027.7
20190120191704 35 310 0.0 0.0 0.00 0.01 0.01 93 1027.7
20190120191205 35 310 0.0 0.0 0.00 0.01 0.01 93 1027.7
20190120190704 36 310 0.0 0.0 0.00 0.01 0.01 93 1027.6
20190120190205 36 310 0.0 0.0 0.00 0.01 0.01 93 1027.5
20190120185705 36 310 0.0 0.0 0.00 0.01 0.01 93 1027.5
20190120185205 36 310 0.0 0.0 0.00 0.01 0.01 92 1027.5
20190120184706 36 310 0.0 0.0 0.00 0.01 0.01 91 1027.5
20190120184205 36 310 0.0 0.0 0.00 0.01 0.01 90 1027.5
20190120183706 37 310 0.0 0.0 0.00 0.01 0.01 90 1027.5
20190120183205 37 310 0.0 0.0 0.00 0.01 0.01 90 1027.4
20190120182706 37 310 0.0 0.0 0.00 0.01 0.01 89 1027.3
20190120182205 37 310 0.0 0.0 0.00 0.01 0.01 89 1027.3
20190120181705 38 310 0.0 0.0 0.00 0.01 0.01 89 1027.1
20190120181206 38 310 0.0 0.0 0.00 0.01 0.01 89 1027.0
20190120180704 38 310 0.0 0.0 0.00 0.01 0.01 88 1027.1